Time;durP1;ratioP1;P1;durP2;ratioP2;P2;SDS_P1;SDS_P2;PMS_P1;PMS_P2;Temp;Humidity;BMP_temperature;BMP_pressure;BME280_temperature;BME280_humidity;BME280_pressure;Samples;Min_cycle;Max_cycle;Signal;HPM_P1;HPM_P2
2021/12/13 00:02:43;;;;;;;;;;;15.70;38.40;;;;;;8368194;28;19924;-49
2021/12/13 00:06:48;;;;;;;;;;;15.70;38.30;;;;;;8367124;28;19924;-48
2021/12/13 00:10:52;;;;;;;;;;;15.70;38.30;;;;;;8367911;28;19950;-49
2021/12/13 00:14:53;;;;;;;;;;;15.70;38.40;;;;;;8366873;28;19921;-49
2021/12/13 00:18:55;;;;;;;;;;;15.70;38.30;;;;;;8366192;28;19966;-50
2021/12/13 00:22:58;;;;;;;;;;;15.70;38.40;;;;;;8367451;28;19951;-50
2021/12/13 00:27:04;;;;;;;;;;;15.70;38.30;;;;;;8366637;28;19967;-49
2021/12/13 00:31:11;;;;;;;;;;;15.70;38.40;;;;;;8367126;28;19921;-49
2021/12/13 00:35:13;;;;;;;;;;;15.70;38.40;;;;;;8366807;28;19925;-49
2021/12/13 00:39:18;;;;;;;;;;;15.70;38.40;;;;;;8366738;28;19939;-50
2021/12/13 00:43:23;;;;;;;;;;;15.70;38.40;;;;;;8366794;28;19996;-50
2021/12/13 00:47:26;;;;;;;;;;;15.60;38.30;;;;;;8366388;28;19916;-49
2021/12/13 00:51:28;;;;;;;;;;;15.60;38.40;;;;;;8365849;28;19956;-49
2021/12/13 00:55:30;;;;;;;;;;;15.60;38.40;;;;;;8366322;28;19928;-49
2021/12/13 00:59:33;;;;;;;;;;;15.70;38.40;;;;;;8366288;28;19978;-50
2021/12/13 01:03:46;;;;;;;;;;;15.70;38.40;;;;;;8365656;28;19917;-52
2021/12/13 01:07:59;;;;;;;;;;;15.70;38.40;;;;;;8365826;28;20382;-50
2021/12/13 01:12:02;;;;;;;;;;;15.70;38.40;;;;;;8365201;28;19916;-48
2021/12/13 01:20:43;;;;;;;;;;;15.70;38.30;;;;;;8369245;28;20012;-49
2021/12/13 01:28:53;;;;;;;;;;;15.80;38.30;;;;;;8368439;28;19916;-49
2021/12/13 01:32:55;;;;;;;;;;;15.80;38.30;;;;;;8364468;28;19931;-49
2021/12/13 01:37:08;;;;;;;;;;;15.80;38.30;;;;;;8364573;28;20421;-50
2021/12/13 01:41:10;;;;;;;;;;;15.80;38.30;;;;;;8364819;28;19916;-49
2021/12/13 01:45:13;;;;;;;;;;;15.80;38.30;;;;;;8364173;28;20286;-49
2021/12/13 01:49:14;;;;;;;;;;;15.80;38.30;;;;;;8365028;28;19913;-51
2021/12/13 01:53:16;;;;;;;;;;;15.80;38.30;;;;;;8364427;28;20007;-53
2021/12/13 01:57:27;;;;;;;;;;;15.80;38.80;;;;;;8363919;28;19970;-49
2021/12/13 02:01:28;;;;;;;;;;;15.80;38.30;;;;;;8366147;28;20302;-50
2021/12/13 02:05:30;;;;;;;;;;;15.80;38.30;;;;;;8363146;28;19920;-49
2021/12/13 02:09:32;;;;;;;;;;;15.70;38.30;;;;;;8363648;28;19974;-49
2021/12/13 02:13:48;;;;;;;;;;;15.80;38.30;;;;;;8364035;28;19931;-51
2021/12/13 02:17:50;;;;;;;;;;;15.70;38.30;;;;;;8363793;28;19917;-49
2021/12/13 02:21:56;;;;;;;;;;;15.70;38.30;;;;;;8338949;28;19921;-50
2021/12/13 02:25:57;;;;;;;;;;;15.70;38.30;;;;;;8363433;28;20015;-50
2021/12/13 02:29:59;;;;;;;;;;;15.70;38.30;;;;;;8362867;28;19944;-50
2021/12/13 02:34:03;;;;;;;;;;;15.70;38.30;;;;;;8363792;28;19921;-49
2021/12/13 02:38:04;;;;;;;;;;;15.70;38.30;;;;;;8363333;28;19959;-51
2021/12/13 02:42:07;;;;;;;;;;;15.70;38.30;;;;;;8361810;28;19924;-50
2021/12/13 02:46:08;;;;;;;;;;;15.70;38.40;;;;;;8363263;28;20011;-50
2021/12/13 02:50:11;;;;;;;;;;;15.70;38.30;;;;;;8363218;28;19932;-49
2021/12/13 02:54:16;;;;;;;;;;;15.70;38.40;;;;;;8362876;28;20370;-48
2021/12/13 02:58:18;;;;;;;;;;;15.70;38.90;;;;;;8362907;28;20363;-49
2021/12/13 03:02:33;;;;;;;;;;;15.70;38.40;;;;;;8362874;28;19931;-50
2021/12/13 03:06:36;;;;;;;;;;;15.70;38.40;;;;;;8362465;28;19921;-49
2021/12/13 03:10:39;;;;;;;;;;;15.60;38.40;;;;;;8362673;28;19999;-49
2021/12/13 03:14:43;;;;;;;;;;;15.60;38.40;;;;;;8362761;28;19932;-49
2021/12/13 03:19:10;;;;;;;;;;;15.60;38.40;;;;;;8362058;28;20271;-49
2021/12/13 03:23:10;;;;;;;;;;;15.60;38.40;;;;;;8313594;28;19921;-49
2021/12/13 03:27:23;;;;;;;;;;;15.60;38.40;;;;;;8348328;28;20285;-49
2021/12/13 03:31:27;;;;;;;;;;;15.60;38.40;;;;;;8362334;28;19917;-50
2021/12/13 03:35:35;;;;;;;;;;;15.60;38.40;;;;;;8362415;28;20341;-48
2021/12/13 03:39:39;;;;;;;;;;;15.60;38.40;;;;;;8362316;28;19913;-50
2021/12/13 03:43:41;;;;;;;;;;;15.60;38.50;;;;;;8362572;28;19917;-49
2021/12/13 03:47:44;;;;;;;;;;;15.70;38.50;;;;;;8362135;28;19917;-50
2021/12/13 03:51:45;;;;;;;;;;;15.70;38.40;;;;;;8362887;28;19921;-49
2021/12/13 03:55:48;;;;;;;;;;;15.70;38.40;;;;;;8367818;28;20050;-50
2021/12/13 03:59:49;;;;;;;;;;;15.70;38.40;;;;;;8368360;28;20286;-49
2021/12/13 04:03:52;;;;;;;;;;;15.70;38.30;;;;;;8367322;28;19917;-50
2021/12/13 04:07:55;;;;;;;;;;;15.70;38.30;;;;;;8367675;28;19952;-49
2021/12/13 04:11:56;;;;;;;;;;;15.70;38.30;;;;;;8366859;28;19948;-49
2021/12/13 04:16:14;;;;;;;;;;;15.70;38.30;;;;;;8366969;28;20419;-51
2021/12/13 04:20:19;;;;;;;;;;;15.70;38.30;;;;;;8368770;28;19916;-49
2021/12/13 04:24:28;;;;;;;;;;;15.70;38.30;;;;;;8366042;28;19948;-49
2021/12/13 04:28:40;;;;;;;;;;;15.80;38.40;;;;;;8366603;28;19917;-50
2021/12/13 04:32:43;;;;;;;;;;;15.70;38.30;;;;;;8366627;28;20399;-49
2021/12/13 04:36:46;;;;;;;;;;;15.70;38.60;;;;;;8366253;28;19999;-49
2021/12/13 04:40:46;;;;;;;;;;;15.70;38.30;;;;;;8366565;28;19917;-49
2021/12/13 04:44:50;;;;;;;;;;;15.70;38.30;;;;;;8366641;28;19913;-50
2021/12/13 04:48:53;;;;;;;;;;;15.70;38.30;;;;;;8366446;28;19956;-49
2021/12/13 04:52:54;;;;;;;;;;;15.70;38.40;;;;;;8366244;28;19921;-49
2021/12/13 04:56:56;;;;;;;;;;;15.70;38.40;;;;;;8365507;28;19928;-49
2021/12/13 05:00:58;;;;;;;;;;;15.70;38.30;;;;;;8365998;28;20301;-51
2021/12/13 05:05:00;;;;;;;;;;;15.70;38.40;;;;;;8365315;28;19978;-52
2021/12/13 05:09:04;;;;;;;;;;;15.70;38.40;;;;;;8338721;28;19921;-48
2021/12/13 05:13:09;;;;;;;;;;;15.70;38.40;;;;;;8353095;28;20305;-48
2021/12/13 05:17:30;;;;;;;;;;;15.70;38.40;;;;;;8365421;28;19986;-48
2021/12/13 05:21:36;;;;;;;;;;;15.70;38.40;;;;;;8364435;28;20000;-49
2021/12/13 05:25:44;;;;;;;;;;;15.70;38.40;;;;;;8365647;28;19970;-50
2021/12/13 05:29:46;;;;;;;;;;;15.70;38.40;;;;;;8365573;28;20008;-49
2021/12/13 05:33:49;;;;;;;;;;;15.70;38.40;;;;;;8364690;28;20386;-51
2021/12/13 05:37:53;;;;;;;;;;;15.70;38.40;;;;;;8365051;28;19941;-50
2021/12/13 05:41:59;;;;;;;;;;;15.70;38.40;;;;;;8364229;28;20369;-48
2021/12/13 05:46:05;;;;;;;;;;;15.60;38.40;;;;;;8364565;28;19913;-49
2021/12/13 05:50:06;;;;;;;;;;;15.60;38.40;;;;;;8364776;28;19979;-48
2021/12/13 05:54:13;;;;;;;;;;;15.60;38.40;;;;;;8363850;28;20292;-49
2021/12/13 05:58:26;;;;;;;;;;;15.60;38.40;;;;;;8364282;28;20328;-48
2021/12/13 06:02:45;;;;;;;;;;;15.60;38.40;;;;;;8364386;28;19921;-48
2021/12/13 06:06:48;;;;;;;;;;;15.60;38.50;;;;;;8363504;28;19923;-48
2021/12/13 06:10:51;;;;;;;;;;;15.60;38.40;;;;;;8364094;28;19913;-47
2021/12/13 06:14:52;;;;;;;;;;;15.60;38.30;;;;;;8363276;28;19929;-47
2021/12/13 06:18:52;;;;;;;;;;;15.60;38.40;;;;;;8363977;28;20441;-46
2021/12/13 06:23:02;;;;;;;;;;;15.60;38.30;;;;;;8363612;28;19923;-47
2021/12/13 06:27:08;;;;;;;;;;;15.60;38.40;;;;;;8363233;28;19941;-46
2021/12/13 06:31:16;;;;;;;;;;;15.60;38.40;;;;;;8363274;28;19913;-48
2021/12/13 06:35:28;;;;;;;;;;;15.60;38.90;;;;;;8363554;28;19921;-49
2021/12/13 06:39:30;;;;;;;;;;;15.60;38.30;;;;;;8362839;28;19917;-48
2021/12/13 06:43:36;;;;;;;;;;;15.60;38.30;;;;;;8363342;28;19920;-48
2021/12/13 06:47:46;;;;;;;;;;;15.60;38.30;;;;;;8363344;28;19959;-47
2021/12/13 06:51:57;;;;;;;;;;;15.50;38.30;;;;;;8362612;28;19916;-49
2021/12/13 06:56:16;;;;;;;;;;;15.60;38.30;;;;;;8363211;28;19980;-47
2021/12/13 07:00:19;;;;;;;;;;;15.60;38.30;;;;;;8364302;28;19928;-47
2021/12/13 07:04:20;;;;;;;;;;;15.50;38.30;;;;;;8362853;28;19956;-47
2021/12/13 07:08:23;;;;;;;;;;;15.60;38.30;;;;;;8362884;28;20106;-49
2021/12/13 07:12:24;;;;;;;;;;;15.50;38.20;;;;;;8362315;28;19917;-47
2021/12/13 07:16:29;;;;;;;;;;;15.50;38.30;;;;;;8362616;28;19921;-47
2021/12/13 07:20:36;;;;;;;;;;;15.50;38.20;;;;;;8362943;28;19917;-49
2021/12/13 07:24:42;;;;;;;;;;;15.50;38.20;;;;;;8362033;28;19916;-48
2021/12/13 07:28:43;;;;;;;;;;;15.50;38.20;;;;;;8366759;28;19916;-47
2021/12/13 07:32:50;;;;;;;;;;;15.50;38.20;;;;;;8368697;28;20290;-48
2021/12/13 07:36:52;;;;;;;;;;;15.50;38.20;;;;;;8368249;28;19917;-47
2021/12/13 07:41:04;;;;;;;;;;;15.50;38.20;;;;;;8368913;28;19917;-47
2021/12/13 07:45:20;;;;;;;;;;;15.50;38.20;;;;;;8367811;28;19920;-46
2021/12/13 07:49:29;;;;;;;;;;;15.50;38.30;;;;;;8368345;28;19924;-47
2021/12/13 07:53:36;;;;;;;;;;;15.50;38.20;;;;;;8368113;28;19956;-47
2021/12/13 07:57:37;;;;;;;;;;;15.50;38.20;;;;;;8367485;28;20059;-49
2021/12/13 08:01:44;;;;;;;;;;;15.50;38.20;;;;;;8368583;28;19921;-47
2021/12/13 08:05:47;;;;;;;;;;;15.50;38.20;;;;;;8367214;28;19916;-47
2021/12/13 08:09:50;;;;;;;;;;;15.60;38.30;;;;;;8368097;28;19920;-47
2021/12/13 08:13:58;;;;;;;;;;;15.60;38.30;;;;;;8367594;28;19925;-52
2021/12/13 08:18:00;;;;;;;;;;;15.60;38.20;;;;;;8366892;28;19920;-48
2021/12/13 08:22:02;;;;;;;;;;;15.70;38.20;;;;;;8367000;28;19913;-48
2021/12/13 08:26:04;;;;;;;;;;;15.70;38.20;;;;;;8367147;28;19917;-49
2021/12/13 08:30:10;;;;;;;;;;;15.70;38.10;;;;;;8366739;28;19943;-49
2021/12/13 08:34:22;;;;;;;;;;;15.70;38.00;;;;;;8366618;28;19925;-47
2021/12/13 08:38:32;;;;;;;;;;;15.70;38.00;;;;;;8365452;28;19968;-47
2021/12/13 08:42:36;;;;;;;;;;;15.70;38.10;;;;;;8362156;28;20362;-46
2021/12/13 08:46:52;;;;;;;;;;;15.70;38.10;;;;;;8364953;28;20405;-47
2021/12/13 08:50:54;;;;;;;;;;;15.80;38.10;;;;;;8380083;28;19927;-49
2021/12/13 08:55:10;;;;;;;;;;;15.70;38.00;;;;;;8371687;28;20305;-48
2021/12/13 08:59:18;;;;;;;;;;;15.80;38.10;;;;;;8366201;28;19921;-47
2021/12/13 09:03:25;;;;;;;;;;;15.70;38.00;;;;;;8363777;28;19960;-46
2021/12/13 09:07:26;;;;;;;;;;;15.70;38.00;;;;;;8363253;28;19917;-48
2021/12/13 09:11:31;;;;;;;;;;;15.70;38.10;;;;;;8365818;28;19919;-47
2021/12/13 09:15:34;;;;;;;;;;;15.70;38.10;;;;;;8364716;28;19951;-48
2021/12/13 09:19:39;;;;;;;;;;;15.70;38.10;;;;;;8365351;28;20270;-48
2021/12/13 09:23:42;;;;;;;;;;;15.70;38.20;;;;;;8365366;28;20069;-51
2021/12/13 09:27:43;;;;;;;;;;;15.70;38.20;;;;;;8364737;28;19921;-53
2021/12/13 09:31:44;;;;;;;;;;;15.70;38.10;;;;;;8365204;28;20415;-49
2021/12/13 09:35:59;;;;;;;;;;;15.70;38.10;;;;;;8365055;28;20015;-49
2021/12/13 09:40:02;;;;;;;;;;;15.70;38.20;;;;;;8364795;28;19917;-49
2021/12/13 09:44:02;;;;;;;;;;;15.70;38.20;;;;;;8365025;28;19916;-49
2021/12/13 09:48:21;;;;;;;;;;;15.70;38.20;;;;;;8364711;28;19917;-49
2021/12/13 09:52:27;;;;;;;;;;;15.70;38.20;;;;;;8364337;28;19917;-48
2021/12/13 09:56:29;;;;;;;;;;;15.70;38.20;;;;;;8376386;28;19925;-48
2021/12/13 10:00:41;;;;;;;;;;;15.70;38.20;;;;;;8363230;28;20390;-48
2021/12/13 10:04:42;;;;;;;;;;;15.70;38.20;;;;;;8363704;28;19989;-50
2021/12/13 10:09:03;;;;;;;;;;;15.70;38.10;;;;;;8363966;28;19913;-48
2021/12/13 10:13:05;;;;;;;;;;;15.70;38.20;;;;;;8363206;28;19925;-48
2021/12/13 10:17:07;;;;;;;;;;;15.70;38.20;;;;;;8363755;28;19930;-49
2021/12/13 10:21:08;;;;;;;;;;;15.80;38.20;;;;;;8362998;28;19916;-49
2021/12/13 10:25:17;;;;;;;;;;;15.70;38.20;;;;;;8361156;28;20020;-48
2021/12/13 10:29:19;;;;;;;;;;;15.70;38.20;;;;;;8361527;28;19920;-50
2021/12/13 10:33:20;;;;;;;;;;;15.80;38.20;;;;;;8361381;28;20366;-50
2021/12/13 10:37:23;;;;;;;;;;;15.80;38.20;;;;;;8361357;28;19970;-49
2021/12/13 10:41:23;;;;;;;;;;;15.80;38.20;;;;;;8361521;28;19959;-48
2021/12/13 10:45:26;;;;;;;;;;;15.80;38.20;;;;;;8362744;28;19920;-49
2021/12/13 10:49:27;;;;;;;;;;;15.80;38.20;;;;;;8359701;28;20441;-49
2021/12/13 10:53:28;;;;;;;;;;;15.80;38.20;;;;;;8361692;28;19966;-48
2021/12/13 10:57:30;;;;;;;;;;;15.80;38.20;;;;;;8362904;28;19913;-48
2021/12/13 11:01:36;;;;;;;;;;;15.80;38.20;;;;;;8357507;28;19933;-49
2021/12/13 11:05:37;;;;;;;;;;;15.80;38.30;;;;;;8369716;28;19920;-49
2021/12/13 11:09:39;;;;;;;;;;;15.80;38.30;;;;;;8366322;28;19916;-50
2021/12/13 11:13:40;;;;;;;;;;;15.80;38.20;;;;;;8360228;28;19932;-49
2021/12/13 11:17:41;;;;;;;;;;;15.80;38.20;;;;;;8369418;28;19913;-52
2021/12/13 11:21:44;;;;;;;;;;;15.80;38.30;;;;;;8363527;28;20406;-49
2021/12/13 11:25:51;;;;;;;;;;;15.80;38.30;;;;;;8368820;28;19917;-50
2021/12/13 11:29:51;;;;;;;;;;;15.80;38.30;;;;;;8368392;28;19920;-49
2021/12/13 11:34:01;;;;;;;;;;;15.80;38.30;;;;;;8368689;28;19932;-50
2021/12/13 11:38:11;;;;;;;;;;;15.80;38.40;;;;;;8369196;28;20247;-49
2021/12/13 11:42:27;;;;;;;;;;;15.80;38.30;;;;;;8368454;28;19925;-49
2021/12/13 11:46:37;;;;;;;;;;;15.80;38.40;;;;;;8368371;28;19939;-49
2021/12/13 11:50:56;;;;;;;;;;;15.80;38.40;;;;;;8368448;28;19913;-49
2021/12/13 11:54:59;;;;;;;;;;;15.80;38.40;;;;;;8367752;28;19979;-50
2021/12/13 11:59:10;;;;;;;;;;;15.90;38.40;;;;;;8367863;28;19964;-49
2021/12/13 12:03:10;;;;;;;;;;;15.90;38.50;;;;;;8367671;28;19919;-49
2021/12/13 12:07:13;;;;;;;;;;;15.90;38.50;;;;;;8367723;28;20370;-49
2021/12/13 12:11:27;;;;;;;;;;;15.90;38.50;;;;;;8367924;28;19917;-50
2021/12/13 12:15:29;;;;;;;;;;;15.90;38.50;;;;;;8366827;28;19925;-49
2021/12/13 12:19:32;;;;;;;;;;;15.90;38.60;;;;;;8367514;28;19917;-48
2021/12/13 12:23:33;;;;;;;;;;;15.90;38.60;;;;;;8367254;28;20309;-50
2021/12/13 12:27:35;;;;;;;;;;;15.90;38.60;;;;;;8367129;28;19919;-49
2021/12/13 12:31:41;;;;;;;;;;;15.90;38.60;;;;;;8367092;28;19927;-50
2021/12/13 12:35:43;;;;;;;;;;;15.90;38.60;;;;;;8366691;28;19931;-52
2021/12/13 12:39:48;;;;;;;;;;;15.90;38.60;;;;;;8366281;28;20366;-52
2021/12/13 12:43:53;;;;;;;;;;;15.90;38.60;;;;;;8366682;28;19920;-51
2021/12/13 12:48:01;;;;;;;;;;;15.90;38.60;;;;;;8366385;28;19966;-49
2021/12/13 12:52:04;;;;;;;;;;;15.90;38.70;;;;;;8366119;28;19927;-49
2021/12/13 12:56:31;;;;;;;;;;;15.90;38.70;;;;;;8366055;28;19936;-49
2021/12/13 13:00:31;;;;;;;;;;;15.90;38.70;;;;;;8363627;28;20361;-49
2021/12/13 13:04:34;;;;;;;;;;;15.90;38.70;;;;;;8366272;28;19921;-49
2021/12/13 13:08:36;;;;;;;;;;;15.90;38.70;;;;;;8366196;28;19920;-50
2021/12/13 13:12:37;;;;;;;;;;;15.90;38.70;;;;;;8365370;28;19917;-50
2021/12/13 13:16:41;;;;;;;;;;;15.90;38.80;;;;;;8365489;28;19932;-52
2021/12/13 13:20:44;;;;;;;;;;;15.90;38.70;;;;;;8365666;28;20027;-53
2021/12/13 13:24:46;;;;;;;;;;;15.90;38.80;;;;;;8364533;28;20000;-52
2021/12/13 13:28:50;;;;;;;;;;;15.90;38.80;;;;;;8365742;28;19973;-50
2021/12/13 13:32:51;;;;;;;;;;;16.00;38.80;;;;;;8364818;28;19944;-48
2021/12/13 13:36:53;;;;;;;;;;;16.00;38.80;;;;;;8364972;28;19927;-52
2021/12/13 13:40:54;;;;;;;;;;;16.00;38.80;;;;;;8364808;28;19919;-49
2021/12/13 13:44:56;;;;;;;;;;;15.90;38.80;;;;;;8364076;28;19917;-50
2021/12/13 13:49:02;;;;;;;;;;;16.00;38.90;;;;;;8365005;28;20374;-49
2021/12/13 13:53:04;;;;;;;;;;;16.00;38.90;;;;;;8364668;28;19921;-49
2021/12/13 13:57:11;;;;;;;;;;;16.00;38.90;;;;;;8363963;28;19912;-49
2021/12/13 14:01:17;;;;;;;;;;;16.00;39.00;;;;;;8364546;28;19924;-49
2021/12/13 14:05:18;;;;;;;;;;;16.00;39.00;;;;;;8364040;28;19913;-52
2021/12/13 14:09:21;;;;;;;;;;;16.00;39.00;;;;;;8363645;28;19970;-50
2021/12/13 14:13:22;;;;;;;;;;;16.00;39.00;;;;;;8336178;28;20378;-50
2021/12/13 14:17:33;;;;;;;;;;;16.00;39.00;;;;;;8356976;28;19963;-51
2021/12/13 14:21:36;;;;;;;;;;;16.00;39.00;;;;;;8363387;28;19916;-50
2021/12/13 14:25:38;;;;;;;;;;;16.00;39.00;;;;;;8363404;28;19931;-50
2021/12/13 14:29:38;;;;;;;;;;;16.00;39.00;;;;;;8363424;28;19924;-49
2021/12/13 14:33:44;;;;;;;;;;;16.00;39.00;;;;;;8363334;28;19921;-50
2021/12/13 14:37:45;;;;;;;;;;;16.00;39.00;;;;;;8363726;28;19953;-49
2021/12/13 14:41:49;;;;;;;;;;;16.00;39.00;;;;;;8363325;28;20332;-49
2021/12/13 14:45:51;;;;;;;;;;;16.10;39.10;;;;;;8362632;28;19917;-52
2021/12/13 14:49:53;;;;;;;;;;;16.00;39.10;;;;;;8363228;28;19917;-50
2021/12/13 14:53:58;;;;;;;;;;;16.00;39.00;;;;;;8362819;28;20292;-50
2021/12/13 14:58:04;;;;;;;;;;;16.00;39.10;;;;;;8363121;28;20004;-52
2021/12/13 15:02:08;;;;;;;;;;;16.00;39.10;;;;;;8363067;28;19943;-49
2021/12/13 15:06:14;;;;;;;;;;;16.00;39.10;;;;;;8362273;28;20007;-50
2021/12/13 15:10:16;;;;;;;;;;;16.00;39.10;;;;;;8362969;28;19997;-53
2021/12/13 15:14:27;;;;;;;;;;;16.00;39.10;;;;;;8362892;28;19951;-52
2021/12/13 15:18:48;;;;;;;;;;;16.00;39.10;;;;;;8362329;28;19924;-49
2021/12/13 15:22:52;;;;;;;;;;;16.00;39.10;;;;;;8362572;28;20293;-52
2021/12/13 15:27:00;;;;;;;;;;;16.00;39.10;;;;;;8362125;28;19924;-49
2021/12/13 15:31:06;;;;;;;;;;;16.00;39.10;;;;;;8362839;28;19916;-50
2021/12/13 15:35:08;;;;;;;;;;;16.00;39.10;;;;;;8362535;28;20043;-49
2021/12/13 15:39:10;;;;;;;;;;;16.00;39.20;;;;;;8362253;28;20414;-52
2021/12/13 15:43:18;;;;;;;;;;;16.00;39.20;;;;;;8362867;28;19917;-52
2021/12/13 15:47:31;;;;;;;;;;;16.00;39.20;;;;;;8362433;28;20008;-50
2021/12/13 15:51:41;;;;;;;;;;;16.00;39.20;;;;;;8368699;28;19921;-51
2021/12/13 15:55:43;;;;;;;;;;;16.00;39.20;;;;;;8368097;28;19921;-50
2021/12/13 15:59:46;;;;;;;;;;;16.00;39.30;;;;;;8368472;28;20011;-50
2021/12/13 16:03:50;;;;;;;;;;;16.00;39.20;;;;;;8366797;28;19923;-49
2021/12/13 16:07:51;;;;;;;;;;;16.00;39.30;;;;;;8367533;28;20027;-52
2021/12/13 16:11:55;;;;;;;;;;;16.00;39.20;;;;;;8366377;28;22283;-51
2021/12/13 16:15:55;;;;;;;;;;;16.10;39.30;;;;;;8367738;28;19932;-50
2021/12/13 16:19:59;;;;;;;;;;;16.00;39.20;;;;;;8367769;28;19948;-49
2021/12/13 16:24:03;;;;;;;;;;;16.00;39.30;;;;;;8366845;28;20399;-52
2021/12/13 16:28:03;;;;;;;;;;;16.00;39.30;;;;;;8367488;28;20396;-52
2021/12/13 16:32:09;;;;;;;;;;;16.00;39.30;;;;;;8367161;28;19952;-54
2021/12/13 16:36:13;;;;;;;;;;;16.00;39.30;;;;;;8366384;28;20015;-49
2021/12/13 16:40:13;;;;;;;;;;;16.00;39.30;;;;;;8366696;28;19936;-49
2021/12/13 16:44:15;;;;;;;;;;;16.00;39.30;;;;;;8366810;28;19912;-49
2021/12/13 16:48:20;;;;;;;;;;;16.00;39.20;;;;;;8365874;28;19924;-49
2021/12/13 16:52:24;;;;;;;;;;;16.00;39.20;;;;;;8366387;28;19917;-48
2021/12/13 16:56:25;;;;;;;;;;;16.00;39.20;;;;;;8366371;28;19925;-50
2021/12/13 17:00:32;;;;;;;;;;;16.00;39.20;;;;;;8364818;28;19928;-49
2021/12/13 17:04:34;;;;;;;;;;;16.00;39.20;;;;;;8366427;28;19975;-49
2021/12/13 17:08:42;;;;;;;;;;;16.00;39.30;;;;;;8364649;28;19964;-49
2021/12/13 17:13:05;;;;;;;;;;;16.00;39.20;;;;;;8365433;28;19947;-50
2021/12/13 17:17:06;;;;;;;;;;;16.00;39.30;;;;;;8365635;28;19925;-49
2021/12/13 17:21:06;;;;;;;;;;;16.00;39.30;;;;;;8365130;28;19939;-49
2021/12/13 17:25:07;;;;;;;;;;;16.00;39.30;;;;;;8365831;28;20338;-52
2021/12/13 17:29:13;;;;;;;;;;;16.00;39.30;;;;;;8365470;28;20423;-50
2021/12/13 17:33:14;;;;;;;;;;;16.00;39.30;;;;;;8364568;28;19921;-52
2021/12/13 17:37:23;;;;;;;;;;;16.00;39.20;;;;;;8363655;28;19983;-51
2021/12/13 17:41:24;;;;;;;;;;;16.00;39.30;;;;;;8364565;28;19952;-52
2021/12/13 17:45:44;;;;;;;;;;;16.00;39.20;;;;;;8364350;28;20336;-49
2021/12/13 17:49:47;;;;;;;;;;;16.00;39.20;;;;;;8364782;28;19982;-47
2021/12/13 17:54:00;;;;;;;;;;;16.00;39.30;;;;;;8364410;28;19925;-48
2021/12/13 17:58:00;;;;;;;;;;;16.00;39.20;;;;;;8364081;28;20328;-48
2021/12/13 18:02:13;;;;;;;;;;;16.00;39.20;;;;;;8364442;28;19952;-48
2021/12/13 18:06:13;;;;;;;;;;;16.00;39.20;;;;;;8363771;28;20369;-49
2021/12/13 18:10:25;;;;;;;;;;;16.00;39.20;;;;;;8364227;28;19920;-51
2021/12/13 18:14:40;;;;;;;;;;;16.00;39.20;;;;;;8363825;28;19925;-49
2021/12/13 18:18:45;;;;;;;;;;;16.00;39.20;;;;;;8363385;28;19917;-49
2021/12/13 18:22:52;;;;;;;;;;;16.00;39.20;;;;;;8363950;28;20325;-50
2021/12/13 18:26:59;;;;;;;;;;;16.00;39.20;;;;;;8363341;28;19920;-51
2021/12/13 18:31:05;;;;;;;;;;;16.00;39.20;;;;;;8363717;28;20289;-48
2021/12/13 18:35:25;;;;;;;;;;;16.00;39.20;;;;;;8363428;28;19978;-49
2021/12/13 18:39:34;;;;;;;;;;;16.00;39.20;;;;;;8362817;28;19916;-51
2021/12/13 18:43:45;;;;;;;;;;;16.00;39.20;;;;;;8361931;28;20015;-48
2021/12/13 18:47:51;;;;;;;;;;;16.00;39.20;;;;;;8363459;28;19917;-48
2021/12/13 18:51:54;;;;;;;;;;;16.00;39.30;;;;;;8362732;28;20383;-48
2021/12/13 18:56:01;;;;;;;;;;;16.00;39.80;;;;;;8363141;28;19921;-50
2021/12/13 19:00:16;;;;;;;;;;;16.00;39.30;;;;;;8362271;28;19927;-50
2021/12/13 19:04:22;;;;;;;;;;;16.00;39.30;;;;;;8362915;28;19916;-49
2021/12/13 19:08:26;;;;;;;;;;;16.00;39.30;;;;;;8363033;28;19921;-49
2021/12/13 19:12:28;;;;;;;;;;;15.90;39.30;;;;;;8362545;28;19916;-50
2021/12/13 19:16:47;;;;;;;;;;;15.90;39.30;;;;;;8362764;28;19921;-49
2021/12/13 19:20:54;;;;;;;;;;;15.90;39.30;;;;;;8362981;28;19919;-48
2021/12/13 19:25:05;;;;;;;;;;;15.90;39.30;;;;;;8366946;28;19917;-47
2021/12/13 19:29:11;;;;;;;;;;;15.90;39.30;;;;;;8369010;28;19917;-48
2021/12/13 19:33:15;;;;;;;;;;;15.90;39.30;;;;;;8368515;28;19975;-47
2021/12/13 19:37:32;;;;;;;;;;;15.90;39.30;;;;;;8369242;28;20208;-49
2021/12/13 19:41:42;;;;;;;;;;;15.90;39.30;;;;;;8368646;28;20231;-47
2021/12/13 19:45:50;;;;;;;;;;;15.90;39.30;;;;;;8368232;28;19992;-48
2021/12/13 19:49:55;;;;;;;;;;;15.90;39.30;;;;;;8368439;28;19962;-49
2021/12/13 19:53:57;;;;;;;;;;;15.90;39.30;;;;;;8367826;28;19931;-48
2021/12/13 19:58:02;;;;;;;;;;;16.00;39.30;;;;;;8368197;28;19962;-48
2021/12/13 20:02:04;;;;;;;;;;;16.00;39.30;;;;;;8367859;28;19931;-48
2021/12/13 20:06:16;;;;;;;;;;;16.00;39.30;;;;;;8358492;28;19913;-48
2021/12/13 20:10:22;;;;;;;;;;;16.00;39.20;;;;;;8370737;28;19916;-49
2021/12/13 20:14:27;;;;;;;;;;;16.00;39.20;;;;;;8367405;28;20376;-48
2021/12/13 20:18:35;;;;;;;;;;;16.00;39.20;;;;;;8366892;28;19920;-49
2021/12/13 20:22:41;;;;;;;;;;;16.00;39.20;;;;;;8367798;28;19921;-49
2021/12/13 20:27:05;;;;;;;;;;;16.00;39.20;;;;;;8367306;28;20297;-49
2021/12/13 20:31:19;;;;;;;;;;;16.00;39.20;;;;;;8338753;28;19917;-52
2021/12/13 20:35:23;;;;;;;;;;;15.90;39.20;;;;;;8366822;28;20019;-49
2021/12/13 20:39:35;;;;;;;;;;;16.00;39.20;;;;;;8366463;28;19917;-49
2021/12/13 20:43:38;;;;;;;;;;;16.00;39.20;;;;;;8372772;28;19921;-47
2021/12/13 20:47:41;;;;;;;;;;;16.00;39.30;;;;;;8366789;28;20050;-49
2021/12/13 20:52:08;;;;;;;;;;;16.00;39.20;;;;;;8366331;28;19913;-50
2021/12/13 20:56:11;;;;;;;;;;;15.90;39.20;;;;;;8363334;28;19970;-47
2021/12/13 21:00:12;;;;;;;;;;;16.00;39.20;;;;;;8366122;28;19921;-49
2021/12/13 21:04:14;;;;;;;;;;;15.90;39.20;;;;;;8366472;28;20017;-48
2021/12/13 21:08:18;;;;;;;;;;;16.00;39.20;;;;;;8365970;28;19919;-50
2021/12/13 21:12:27;;;;;;;;;;;16.00;39.20;;;;;;8365849;28;20545;-49
2021/12/13 21:16:33;;;;;;;;;;;15.90;39.20;;;;;;8365906;28;20003;-48
2021/12/13 21:20:36;;;;;;;;;;;15.90;39.20;;;;;;8365476;28;19920;-48
2021/12/13 21:24:43;;;;;;;;;;;15.90;39.20;;;;;;8365008;28;20285;-48
2021/12/13 21:28:45;;;;;;;;;;;15.90;39.20;;;;;;8364065;28;19923;-47
2021/12/13 21:32:47;;;;;;;;;;;15.90;39.10;;;;;;8365256;28;19977;-49
2021/12/13 21:41:17;;;;;;;;;;;15.90;39.10;;;;;;8365217;28;19924;-52
2021/12/13 21:45:21;;;;;;;;;;;15.90;39.00;;;;;;8363846;28;20250;-49
2021/12/13 21:49:24;;;;;;;;;;;15.90;39.00;;;;;;8364712;28;19917;-50
2021/12/13 21:53:33;;;;;;;;;;;15.90;39.00;;;;;;8364654;28;19917;-50
2021/12/13 21:57:54;;;;;;;;;;;15.90;39.00;;;;;;8364100;28;20325;-50
2021/12/13 22:02:15;;;;;;;;;;;15.90;38.90;;;;;;8364313;28;19924;-52
2021/12/13 22:06:16;;;;;;;;;;;15.90;39.00;;;;;;8363850;28;20289;-49
2021/12/13 22:10:22;;;;;;;;;;;15.90;39.00;;;;;;8363999;28;19917;-49
2021/12/13 22:14:28;;;;;;;;;;;15.90;39.00;;;;;;8364114;28;20351;-49
2021/12/13 22:18:31;;;;;;;;;;;15.90;39.00;;;;;;8363563;28;20290;-50
2021/12/13 22:22:33;;;;;;;;;;;15.90;39.00;;;;;;8364262;28;20325;-49
2021/12/13 22:26:37;;;;;;;;;;;15.90;39.10;;;;;;8364198;28;20007;-48
2021/12/13 22:30:40;;;;;;;;;;;15.90;39.10;;;;;;8363287;28;19924;-51
2021/12/13 22:34:46;;;;;;;;;;;15.90;39.10;;;;;;8363480;28;19932;-51
2021/12/13 22:38:51;;;;;;;;;;;15.90;39.10;;;;;;8363282;28;20305;-50
2021/12/13 22:42:56;;;;;;;;;;;16.00;39.10;;;;;;8363579;28;19917;-50
2021/12/13 22:47:10;;;;;;;;;;;16.00;39.10;;;;;;8363686;28;20422;-50
2021/12/13 22:51:12;;;;;;;;;;;16.00;39.10;;;;;;8363750;28;19925;-50
2021/12/13 22:55:18;;;;;;;;;;;16.00;39.10;;;;;;8362949;28;20615;-50
2021/12/13 22:59:20;;;;;;;;;;;16.00;39.10;;;;;;8366843;28;19920;-49
2021/12/13 23:03:23;;;;;;;;;;;16.00;39.10;;;;;;8347322;28;19916;-49
2021/12/13 23:07:25;;;;;;;;;;;16.00;39.10;;;;;;8349746;28;20336;-49
2021/12/13 23:11:38;;;;;;;;;;;16.00;39.00;;;;;;8367006;28;19917;-49
2021/12/13 23:15:59;;;;;;;;;;;16.00;39.00;;;;;;8367616;28;19971;-50
2021/12/13 23:19:59;;;;;;;;;;;16.00;39.00;;;;;;8368986;28;20339;-50
2021/12/13 23:24:02;;;;;;;;;;;16.00;39.00;;;;;;8368820;28;19923;-51
2021/12/13 23:28:04;;;;;;;;;;;16.00;39.10;;;;;;8369195;28;19952;-50
2021/12/13 23:32:07;;;;;;;;;;;16.00;39.10;;;;;;8369100;28;19924;-50
2021/12/13 23:36:30;;;;;;;;;;;16.00;39.00;;;;;;8368317;28;19925;-52
2021/12/13 23:49:10;;;;;;;;;;;15.90;39.00;;;;;;8368264;28;20060;-47
2021/12/13 23:53:12;;;;;;;;;;;16.00;39.00;;;;;;8368348;28;19920;-50
2021/12/13 23:57:14;;;;;;;;;;;15.90;39.00;;;;;;8368255;28;19974;-50
